Time;durP1;ratioP1;P1;durP2;ratioP2;P2;SDS_P1;SDS_P2;PMS_P1;PMS_P2;Temp;Humidity;BMP_temperature;BMP_pressure;BME280_temperature;BME280_humidity;BME280_pressure;Samples;Min_cycle;Max_cycle;Signal;HPM_P1;HPM_P2
2023/01/05 00:02:02;;;;;;;0.00;0.00;;;;;;;12.95;100.00;102078.81;2619062;54;20676;-64
2023/01/05 00:04:32;;;;;;;0.00;0.00;;;;;;;12.91;100.00;102066.84;2618725;54;20153;-63
2023/01/05 00:07:03;;;;;;;0.00;0.00;;;;;;;13.01;100.00;102062.88;2618933;54;20153;-64
2023/01/05 00:09:33;;;;;;;0.00;0.00;;;;;;;12.89;100.00;102060.00;2619469;54;20676;-64
2023/01/05 00:22:59;;;;;;;0.00;0.00;;;;;;;12.82;100.00;102056.03;2619474;54;20714;-64
2023/01/05 00:25:32;;;;;;;0.33;0.33;;;;;;;12.79;100.00;102050.97;2618883;54;20807;-63
2023/01/05 00:28:06;;;;;;;0.00;0.00;;;;;;;12.87;100.00;102051.44;2619361;54;20146;-63
2023/01/05 00:30:42;;;;;;;0.00;0.00;;;;;;;12.77;100.00;102044.97;2618315;54;20199;-64
2023/01/05 00:33:13;;;;;;;0.00;0.00;;;;;;;12.96;100.00;102045.75;2618523;54;20173;-63
2023/01/05 00:35:43;;;;;;;0.00;0.00;;;;;;;13.10;100.00;102049.44;2618630;54;20150;-69
2023/01/05 00:38:14;;;;;;;0.00;0.00;;;;;;;12.89;100.00;102053.03;2620292;54;20184;-64
2023/01/05 00:40:44;;;;;;;0.10;0.10;;;;;;;12.99;100.00;102053.47;2619478;47;20243;-64
2023/01/05 00:43:17;;;;;;;0.43;0.43;;;;;;;12.89;100.00;102044.38;2619629;54;20134;-63
2023/01/05 00:45:47;;;;;;;0.20;0.20;;;;;;;12.80;100.00;102047.44;2619346;54;20154;-63
2023/01/05 00:48:17;;;;;;;0.00;0.00;;;;;;;12.98;100.00;102044.78;2619454;54;20256;-64
2023/01/05 00:50:51;;;;;;;0.00;0.00;;;;;;;12.91;100.00;102043.41;2620411;54;20133;-63
2023/01/05 00:53:21;;;;;;;0.47;0.47;;;;;;;13.06;100.00;102044.41;2619024;54;20145;-64
2023/01/05 00:55:58;;;;;;;1.07;1.07;;;;;;;13.05;100.00;102045.31;2618978;54;20149;-64
2023/01/05 00:58:31;;;;;;;0.57;0.30;;;;;;;12.60;100.00;102038.78;2619400;47;20153;-64
2023/01/05 01:01:01;;;;;;;0.33;0.33;;;;;;;12.37;100.00;102038.19;2619238;54;20150;-64
2023/01/05 01:03:31;;;;;;;1.07;1.07;;;;;;;12.29;100.00;102033.34;2619187;54;20145;-64
2023/01/05 01:06:01;;;;;;;0.40;0.40;;;;;;;12.21;100.00;102035.44;2618901;54;20145;-64
2023/01/05 01:08:32;;;;;;;5.80;2.07;;;;;;;11.87;100.00;102043.94;2618821;54;20175;-63
2023/01/05 01:11:06;;;;;;;3.20;1.03;;;;;;;11.68;100.00;102038.63;2619304;54;20152;-63
2023/01/05 01:13:40;;;;;;;0.97;0.47;;;;;;;11.59;100.00;102033.00;2619318;54;20152;-63
2023/01/05 01:16:11;;;;;;;0.47;0.47;;;;;;;11.66;100.00;102022.28;2619484;54;20783;-64
2023/01/05 01:18:43;;;;;;;1.37;0.80;;;;;;;11.69;100.00;102021.28;2619611;54;20137;-63
2023/01/05 01:21:13;;;;;;;0.03;0.03;;;;;;;12.04;100.00;102022.34;2619264;54;20145;-63
2023/01/05 01:23:43;;;;;;;0.17;0.17;;;;;;;12.22;100.00;102016.31;2618542;54;20153;-63
2023/01/05 01:26:15;;;;;;;0.97;0.97;;;;;;;12.27;100.00;102008.31;2618877;54;20145;-63
2023/01/05 01:28:49;;;;;;;0.13;0.13;;;;;;;12.60;100.00;102011.91;2622147;31;20710;-64
2023/01/05 01:31:19;;;;;;;0.27;0.27;;;;;;;12.58;100.00;102008.56;2619605;54;20661;-64
2023/01/05 01:33:49;;;;;;;0.57;0.57;;;;;;;12.70;100.00;102004.53;2619070;54;20753;-64
2023/01/05 01:36:20;;;;;;;0.00;0.00;;;;;;;12.97;100.00;102003.16;2619408;47;20156;-64
2023/01/05 01:38:50;;;;;;;0.00;0.00;;;;;;;13.05;100.00;101998.44;2619003;54;20161;-64
2023/01/05 01:41:20;;;;;;;0.20;0.20;;;;;;;13.16;100.00;101993.53;2618723;54;20153;-63
2023/01/05 01:43:55;;;;;;;0.00;0.00;;;;;;;13.17;100.00;101983.97;2618662;54;20487;-63
2023/01/05 01:46:26;;;;;;;0.00;0.00;;;;;;;13.21;100.00;101977.69;2618640;54;20145;-63
2023/01/05 01:49:00;;;;;;;0.00;0.00;;;;;;;13.10;100.00;101973.03;2618526;54;20218;-64
2023/01/05 01:51:34;;;;;;;0.00;0.00;;;;;;;13.18;100.00;101976.09;2619203;54;20163;-64
2023/01/05 01:54:08;;;;;;;0.00;0.00;;;;;;;13.12;100.00;101958.97;2618757;54;20157;-64
2023/01/05 01:56:41;;;;;;;0.00;0.00;;;;;;;13.11;100.00;101956.47;2619067;54;20164;-63
2023/01/05 01:59:16;;;;;;;0.00;0.00;;;;;;;13.21;100.00;101962.03;2619469;54;20187;-63
2023/01/05 02:01:46;;;;;;;4.37;1.60;;;;;;;13.27;100.00;101952.16;2619776;54;20156;-63
2023/01/05 02:04:17;;;;;;;0.07;0.07;;;;;;;13.31;100.00;101953.69;2620272;54;20156;-64
2023/01/05 02:06:47;;;;;;;1.17;0.43;;;;;;;13.28;100.00;101946.00;2619447;54;20187;-63
2023/01/05 02:09:17;;;;;;;0.00;0.00;;;;;;;13.29;100.00;101950.31;2618807;54;20146;-63
2023/01/05 02:11:59;;;;;;;0.90;0.90;;;;;;;13.39;100.00;101950.69;2619772;54;20291;-63
2023/01/05 02:14:40;;;;;;;1.13;0.87;;;;;;;13.39;100.00;101943.72;2619671;54;20176;-64
2023/01/05 02:17:20;;;;;;;1.00;1.00;;;;;;;13.39;100.00;101941.13;2619706;54;20160;-63
2023/01/05 02:20:35;;;;;;;0.00;0.00;;;;;;;13.28;100.00;101925.16;2619043;47;20149;-63
2023/01/05 02:23:29;;;;;;;0.63;0.63;;;;;;;12.03;100.00;101932.22;2618704;54;20673;-63
2023/01/05 02:26:26;;;;;;;0.00;0.00;;;;;;;12.40;100.00;101937.38;2618961;54;20205;-64
2023/01/05 02:29:13;;;;;;;0.00;0.00;;;;;;;12.61;100.00;101930.28;2618290;54;20153;-64
2023/01/05 02:31:50;;;;;;;0.00;0.00;;;;;;;12.86;100.00;101916.91;2618368;54;20192;-64
2023/01/05 02:34:30;;;;;;;0.00;0.00;;;;;;;12.87;100.00;101913.38;2618858;54;20176;-64
2023/01/05 02:37:07;;;;;;;0.00;0.00;;;;;;;12.76;100.00;101903.47;2619064;54;20703;-67
2023/01/05 02:39:44;;;;;;;0.20;0.20;;;;;;;12.77;100.00;101909.53;2618545;54;20160;-63
2023/01/05 02:42:19;;;;;;;0.30;0.30;;;;;;;12.75;100.00;101906.19;2619192;54;20687;-63
2023/01/05 02:44:49;;;;;;;0.00;0.00;;;;;;;12.86;100.00;101896.91;2618905;47;20149;-63
2023/01/05 02:47:41;;;;;;;0.00;0.00;;;;;;;12.76;100.00;101892.25;2617836;54;20150;-64
2023/01/05 02:50:21;;;;;;;0.00;0.00;;;;;;;12.80;100.00;101889.38;2618064;54;20157;-64
2023/01/05 02:52:58;;;;;;;0.10;0.10;;;;;;;12.64;100.00;101897.13;2618527;54;20160;-64
2023/01/05 02:55:34;;;;;;;3.83;1.30;;;;;;;10.56;100.00;101891.91;2618228;54;20703;-63
2023/01/05 02:58:09;;;;;;;6.28;4.03;;;;;;;9.66;100.00;101899.75;2617889;54;20404;-64
2023/01/05 03:00:44;;;;;;;6.47;3.10;;;;;;;9.42;100.00;101900.63;2618415;54;20288;-64
2023/01/05 03:03:20;;;;;;;2.67;1.73;;;;;;;9.51;100.00;101895.13;2618468;54;20149;-64
2023/01/05 03:05:55;;;;;;;0.63;0.63;;;;;;;9.79;100.00;101891.44;2618789;51;20140;-63
2023/01/05 03:08:26;;;;;;;2.10;1.77;;;;;;;9.64;100.00;101881.66;2619051;54;20160;-63
2023/01/05 03:13:50;;;;;;;1.03;1.00;;;;;;;10.13;100.00;101879.78;2619555;54;20150;-64
2023/01/05 03:16:26;;;;;;;0.63;0.63;;;;;;;9.92;100.00;101875.41;2620324;39;20559;-64
2023/01/05 03:35:36;;;;;;;0.60;0.27;;;;;;;10.36;100.00;101871.94;2619410;54;20154;-63
2023/01/05 03:38:15;;;;;;;0.80;0.80;;;;;;;10.41;100.00;101874.38;2619590;54;20150;-64
2023/01/05 03:40:48;;;;;;;0.00;0.00;;;;;;;11.15;100.00;101863.44;2619736;54;20237;-64
2023/01/05 03:43:18;;;;;;;0.20;0.20;;;;;;;11.19;100.00;101859.78;2619971;54;20212;-64
2023/01/05 03:45:54;;;;;;;0.00;0.00;;;;;;;11.30;100.00;101854.94;2619472;54;20149;-64
2023/01/05 03:48:27;;;;;;;1.27;1.20;;;;;;;10.70;100.00;101851.50;2619837;54;20149;-64
2023/01/05 03:50:59;;;;;;;0.60;0.60;;;;;;;10.72;100.00;101838.44;2620758;54;20150;-63
2023/01/05 03:53:29;;;;;;;0.40;0.40;;;;;;;10.87;100.00;101842.16;2619352;54;20156;-63
2023/01/05 03:56:00;;;;;;;0.50;0.50;;;;;;;10.94;100.00;101833.19;2619228;54;20154;-63
2023/01/05 03:58:30;;;;;;;0.30;0.20;;;;;;;10.95;100.00;101838.31;2619127;54;20142;-64
2023/01/05 04:01:00;;;;;;;2.00;1.80;;;;;;;11.02;100.00;101836.28;2619107;54;20154;-64
2023/01/05 04:03:30;;;;;;;3.17;2.23;;;;;;;10.67;100.00;101833.44;2619368;54;20165;-64
2023/01/05 04:06:04;;;;;;;1.80;0.93;;;;;;;10.71;100.00;101832.41;2619219;54;20211;-64
2023/01/05 04:08:34;;;;;;;0.00;0.00;;;;;;;11.06;100.00;101820.50;2620205;54;20199;-63
2023/01/05 04:11:18;;;;;;;1.17;0.47;;;;;;;11.27;100.00;101819.53;2619840;54;20145;-63
2023/01/05 04:13:49;;;;;;;0.10;0.10;;;;;;;11.16;100.00;101813.13;2619109;54;20141;-64
2023/01/05 04:16:20;;;;;;;1.60;1.60;;;;;;;10.88;100.00;101812.66;2620274;54;20142;-64
2023/01/05 04:18:50;;;;;;;0.40;0.40;;;;;;;10.68;100.00;101809.19;2620623;46;20173;-64
2023/01/05 04:21:23;;;;;;;2.23;2.03;;;;;;;10.12;100.00;101808.06;2620052;47;20153;-63
2023/01/05 04:23:53;;;;;;;0.00;0.00;;;;;;;10.52;100.00;101810.75;2620239;54;20302;-63
2023/01/05 04:26:23;;;;;;;1.60;1.50;;;;;;;10.32;100.00;101814.16;2619657;54;20180;-64
2023/01/05 04:28:53;;;;;;;1.37;1.27;;;;;;;10.01;100.00;101818.03;2619622;39;20558;-63
2023/01/05 04:31:24;;;;;;;0.00;0.00;;;;;;;10.23;100.00;101821.50;2620406;54;20141;-64
2023/01/05 04:33:54;;;;;;;2.03;1.43;;;;;;;10.15;100.00;101821.78;2619865;54;20150;-63
2023/01/05 04:36:26;;;;;;;1.53;1.03;;;;;;;9.91;100.00;101822.72;2619348;54;20149;-63
2023/01/05 04:38:57;;;;;;;1.10;1.10;;;;;;;9.36;100.00;101803.28;2619711;54;20156;-63
2023/01/05 04:41:27;;;;;;;0.50;0.50;;;;;;;9.92;100.00;101818.38;2620510;54;20142;-63
2023/01/05 04:43:57;;;;;;;1.40;1.03;;;;;;;10.21;100.00;101820.69;2619998;54;20263;-64
2023/01/05 04:46:27;;;;;;;0.27;0.27;;;;;;;10.65;100.00;101809.31;2621295;39;20559;-64
2023/01/05 04:48:57;;;;;;;0.10;0.10;;;;;;;11.19;100.00;101810.44;2620149;54;20162;-64
2023/01/05 04:51:30;;;;;;;0.13;0.13;;;;;;;11.46;100.00;101816.97;2619512;54;20689;-63
2023/01/05 04:54:00;;;;;;;0.33;0.33;;;;;;;11.58;100.00;101821.59;2619764;47;20697;-63
2023/01/05 04:56:31;;;;;;;0.20;0.20;;;;;;;11.41;100.00;101812.88;2618291;54;20150;-63
2023/01/05 04:59:01;;;;;;;1.30;1.30;;;;;;;11.53;100.00;101809.72;2618783;54;20200;-63
2023/01/05 05:01:31;;;;;;;0.00;0.00;;;;;;;11.54;100.00;101814.00;2619030;54;20145;-64
2023/01/05 05:04:01;;;;;;;1.10;0.73;;;;;;;11.67;100.00;101805.56;2619367;54;20134;-64
2023/01/05 05:06:34;;;;;;;1.50;1.50;;;;;;;11.87;100.00;101806.44;2618832;54;20171;-64
2023/01/05 05:09:05;;;;;;;0.97;0.93;;;;;;;11.75;100.00;101802.66;2618869;54;20141;-63
2023/01/05 05:11:35;;;;;;;0.67;0.67;;;;;;;11.93;100.00;101798.31;2618719;54;20142;-64
2023/01/05 05:14:05;;;;;;;1.73;1.50;;;;;;;11.81;100.00;101798.91;2617961;54;20146;-63
2023/01/05 05:16:35;;;;;;;0.27;0.27;;;;;;;12.02;100.00;101795.28;2618596;54;20149;-63
2023/01/05 05:19:05;;;;;;;0.07;0.07;;;;;;;12.14;100.00;101800.72;2617926;54;20141;-63
2023/01/05 05:21:38;;;;;;;0.00;0.00;;;;;;;12.08;100.00;101797.56;2617491;49;20164;-63
2023/01/05 05:24:09;;;;;;;0.10;0.10;;;;;;;11.95;100.00;101791.28;2618858;54;20205;-63
2023/01/05 05:26:39;;;;;;;0.30;0.30;;;;;;;11.73;100.00;101787.13;2619418;54;20153;-63
2023/01/05 05:29:09;;;;;;;0.00;0.00;;;;;;;12.07;100.00;101793.31;2618794;39;20568;-64
2023/01/05 05:31:39;;;;;;;0.00;0.00;;;;;;;12.22;100.00;101791.69;2618925;54;20149;-64
2023/01/05 05:34:10;;;;;;;0.93;0.87;;;;;;;12.13;100.00;101790.38;2619513;54;20269;-63
2023/01/05 05:36:43;;;;;;;0.00;0.00;;;;;;;12.09;100.00;101778.44;2617949;54;20148;-64
2023/01/05 05:39:13;;;;;;;0.00;0.00;;;;;;;11.86;100.00;101752.72;2619512;54;20146;-63
2023/01/05 05:41:44;;;;;;;0.00;0.00;;;;;;;11.93;100.00;101777.50;2619350;54;20221;-63
2023/01/05 05:44:14;;;;;;;0.00;0.00;;;;;;;11.91;100.00;101768.94;2619159;54;20633;-63
2023/01/05 05:46:44;;;;;;;0.00;0.00;;;;;;;11.81;100.00;101770.28;2620726;54;20157;-64
2023/01/05 05:49:15;;;;;;;2.50;2.40;;;;;;;11.66;100.00;101762.28;2620299;54;20141;-64
2023/01/05 05:51:47;;;;;;;0.00;0.00;;;;;;;11.85;100.00;101756.22;2618267;54;20142;-64
2023/01/05 05:54:18;;;;;;;2.97;0.80;;;;;;;11.61;100.00;101747.81;2618591;54;20152;-64
2023/01/05 05:56:48;;;;;;;4.63;3.50;;;;;;;11.52;100.00;101754.28;2618048;54;20149;-63
2023/01/05 05:59:18;;;;;;;4.70;3.20;;;;;;;11.43;100.00;101746.94;2618211;54;20156;-64
2023/01/05 06:01:48;;;;;;;2.30;2.20;;;;;;;11.47;100.00;101740.69;2618226;54;20767;-64
2023/01/05 06:04:19;;;;;;;0.57;0.57;;;;;;;11.39;100.00;101740.22;2618638;54;20169;-64
2023/01/05 06:06:52;;;;;;;0.00;0.00;;;;;;;11.68;100.00;101738.81;2618978;54;20244;-64
2023/01/05 06:09:23;;;;;;;0.73;0.73;;;;;;;11.34;100.00;101738.72;2618939;54;20150;-65
2023/01/05 06:11:54;;;;;;;1.90;1.87;;;;;;;11.46;100.00;101745.94;2618819;54;20137;-64
2023/01/05 06:14:24;;;;;;;0.00;0.00;;;;;;;11.39;100.00;101747.16;2619604;39;20562;-64
2023/01/05 06:16:54;;;;;;;1.80;1.70;;;;;;;11.13;100.00;101738.81;2618344;47;20146;-64
2023/01/05 06:19:24;;;;;;;4.10;1.23;;;;;;;10.86;100.00;101731.41;2618808;54;20445;-65
2023/01/05 06:21:57;;;;;;;1.80;1.60;;;;;;;11.25;100.00;101730.44;2619277;54;20149;-65
2023/01/05 06:24:27;;;;;;;0.67;0.47;;;;;;;11.33;100.00;101727.50;2619248;47;20216;-65
2023/01/05 06:26:58;;;;;;;3.30;1.90;;;;;;;11.13;100.00;101728.41;2618564;47;20145;-64
2023/01/05 06:29:28;;;;;;;0.83;0.83;;;;;;;11.18;100.00;101731.66;2618565;54;20677;-64
2023/01/05 06:31:58;;;;;;;3.13;2.97;;;;;;;11.21;100.00;101728.06;2619053;51;20153;-64
2023/01/05 06:34:28;;;;;;;1.40;1.30;;;;;;;11.28;100.00;101727.69;2619518;39;20521;-66
2023/01/05 06:37:01;;;;;;;1.57;1.57;;;;;;;11.56;100.00;101724.63;2619072;54;20732;-64
2023/01/05 06:39:31;;;;;;;0.13;0.13;;;;;;;11.67;100.00;101731.94;2619493;54;20149;-64
2023/01/05 06:42:01;;;;;;;0.80;0.77;;;;;;;11.55;100.00;101732.53;2619122;54;20183;-65
2023/01/05 06:44:32;;;;;;;0.00;0.00;;;;;;;11.79;100.00;101715.78;2618753;54;20142;-65
2023/01/05 06:47:02;;;;;;;2.87;2.67;;;;;;;11.76;100.00;101717.66;2619424;47;20688;-64
2023/01/05 06:49:32;;;;;;;1.70;1.50;;;;;;;11.96;100.00;101717.53;2619574;54;20153;-64
2023/01/05 06:52:05;;;;;;;2.17;2.07;;;;;;;11.87;100.00;101705.00;2618932;47;20669;-64
2023/01/05 06:54:44;;;;;;;0.90;0.90;;;;;;;11.84;100.00;101718.13;2619210;54;20146;-64
2023/01/05 06:57:14;;;;;;;1.27;0.87;;;;;;;11.90;100.00;101710.88;2619287;54;20157;-65
2023/01/05 06:59:44;;;;;;;3.23;2.93;;;;;;;11.85;100.00;101707.66;2619894;54;20277;-64
2023/01/05 07:02:17;;;;;;;0.10;0.10;;;;;;;12.14;100.00;101703.63;2620138;49;20154;-65
2023/01/05 07:04:47;;;;;;;0.97;0.97;;;;;;;12.11;100.00;101706.38;2622290;54;20157;-65
2023/01/05 07:07:20;;;;;;;0.90;0.87;;;;;;;11.79;100.00;101709.75;2619845;54;20237;-64
2023/01/05 07:09:50;;;;;;;0.00;0.00;;;;;;;12.18;100.00;101702.53;2620722;54;20154;-65
2023/01/05 07:12:20;;;;;;;0.93;0.93;;;;;;;12.54;100.00;101698.06;2619904;54;20555;-64
2023/01/05 07:14:51;;;;;;;0.00;0.00;;;;;;;12.34;100.00;101698.25;2619774;54;20157;-64
2023/01/05 07:17:26;;;;;;;3.83;3.70;;;;;;;12.29;100.00;101692.44;2619144;54;20148;-64
2023/01/05 07:19:56;;;;;;;3.83;1.57;;;;;;;12.37;100.00;101697.22;2619186;54;20149;-64
2023/01/05 07:22:29;;;;;;;3.13;1.03;;;;;;;12.23;100.00;101695.34;2619367;54;20157;-65
2023/01/05 07:25:00;;;;;;;1.27;1.27;;;;;;;12.10;100.00;101691.69;2620277;39;20555;-65
2023/01/05 07:27:30;;;;;;;0.53;0.53;;;;;;;12.07;100.00;101684.03;2619395;54;20157;-64
2023/01/05 07:30:00;;;;;;;0.10;0.10;;;;;;;12.10;100.00;101689.94;2620175;39;20606;-64
2023/01/05 07:32:30;;;;;;;0.00;0.00;;;;;;;12.03;100.00;101672.97;2619595;54;20181;-64
2023/01/05 07:35:01;;;;;;;0.87;0.83;;;;;;;12.27;100.00;101670.88;2620000;54;20157;-65
2023/01/05 07:37:33;;;;;;;4.87;2.50;;;;;;;11.40;100.00;101681.25;2619293;51;20141;-64
2023/01/05 07:40:04;;;;;;;13.47;1.20;;;;;;;11.72;100.00;101667.56;2619660;54;20154;-64
2023/01/05 07:42:34;;;;;;;1.73;1.30;;;;;;;11.53;100.00;101678.00;2619447;54;20149;-64
2023/01/05 07:45:05;;;;;;;2.50;2.13;;;;;;;11.40;100.00;101666.50;2619630;54;20150;-64
2023/01/05 07:47:35;;;;;;;1.60;1.40;;;;;;;11.01;100.00;101668.41;2620010;54;20161;-64
2023/01/05 07:50:07;;;;;;;2.67;0.67;;;;;;;10.94;100.00;101662.66;2619982;47;20176;-65
2023/01/05 07:52:40;;;;;;;1.20;1.20;;;;;;;11.35;100.00;101668.53;2620251;54;20182;-69
2023/01/05 07:55:11;;;;;;;2.43;1.07;;;;;;;11.62;100.00;101661.97;2619615;54;20202;-65
2023/01/05 07:57:41;;;;;;;2.43;2.33;;;;;;;11.35;100.00;101665.91;2619836;54;20149;-65
2023/01/05 08:00:13;;;;;;;5.83;3.50;;;;;;;11.37;100.00;101642.44;2619860;54;20156;-64
2023/01/05 08:02:44;;;;;;;3.03;2.83;;;;;;;11.33;100.00;101654.75;2619244;54;20180;-65
2023/01/05 08:05:15;;;;;;;0.97;0.97;;;;;;;11.57;100.00;101656.16;2619296;48;20156;-64
2023/01/05 08:07:47;;;;;;;2.77;1.47;;;;;;;11.12;100.00;101660.94;2619302;54;20148;-65
2023/01/05 08:10:30;;;;;;;4.37;3.20;;;;;;;11.23;100.00;101666.50;2619051;54;20195;-64
2023/01/05 08:15:46;;;;;;;9.53;3.60;;;;;;;10.82;100.00;101654.59;2619244;47;20144;-64
2023/01/05 08:18:20;;;;;;;2.30;1.70;;;;;;;11.01;100.00;101647.63;2619854;54;20150;-64
2023/01/05 08:20:54;;;;;;;1.30;0.60;;;;;;;11.24;100.00;101642.19;2622181;54;20408;-65
2023/01/05 08:23:29;;;;;;;11.60;4.90;;;;;;;10.92;100.00;101632.47;2619590;54;20155;-66
2023/01/05 08:26:06;;;;;;;3.70;2.70;;;;;;;11.01;100.00;101637.25;2619733;47;20675;-64
2023/01/05 08:28:38;;;;;;;8.77;4.93;;;;;;;10.78;100.00;101635.72;2619824;54;20155;-66
2023/01/05 08:31:09;;;;;;;4.27;1.67;;;;;;;10.87;100.00;101634.47;2619857;48;20197;-64
2023/01/05 08:33:40;;;;;;;6.80;3.57;;;;;;;10.70;100.00;101633.47;2620003;54;20160;-64
2023/01/05 08:36:12;;;;;;;5.17;3.60;;;;;;;10.63;100.00;101620.84;2619645;54;20137;-64
2023/01/05 08:38:47;;;;;;;2.83;2.03;;;;;;;10.62;100.00;101625.19;2618818;54;20150;-65
2023/01/05 08:41:18;;;;;;;4.07;2.73;;;;;;;10.71;100.00;101629.13;2619411;54;20193;-66
2023/01/05 08:43:52;;;;;;;8.93;3.60;;;;;;;11.07;100.00;101623.97;2619255;54;20673;-66
2023/01/05 08:46:24;;;;;;;3.70;1.47;;;;;;;11.22;100.00;101615.44;2619010;47;20194;-67
2023/01/05 08:48:56;;;;;;;8.53;2.37;;;;;;;11.17;100.00;101607.03;2619696;46;20142;-66
2023/01/05 08:51:26;;;;;;;3.03;2.37;;;;;;;11.21;100.00;101604.22;2619108;47;20158;-66
2023/01/05 08:54:00;;;;;;;4.87;2.80;;;;;;;11.18;100.00;101600.94;2620017;39;20538;-68
2023/01/05 08:56:30;;;;;;;6.80;3.43;;;;;;;11.15;100.00;101593.28;2619934;54;20642;-69
2023/01/05 08:59:07;;;;;;;2.73;2.27;;;;;;;11.08;100.00;101591.88;2619784;54;20717;-68
2023/01/05 09:01:38;;;;;;;7.07;3.17;;;;;;;11.01;100.00;101587.91;2619784;54;20142;-65
2023/01/05 09:04:08;;;;;;;5.87;3.10;;;;;;;11.11;100.00;101586.56;2619538;47;20171;-66
2023/01/05 09:06:38;;;;;;;6.93;2.87;;;;;;;11.10;100.00;101580.53;2618900;54;20172;-66
2023/01/05 09:09:11;;;;;;;5.37;3.73;;;;;;;10.98;100.00;101567.28;2619328;47;20160;-68
2023/01/05 09:11:42;;;;;;;10.13;4.53;;;;;;;11.11;100.00;101560.59;2619592;54;20142;-67
2023/01/05 09:14:16;;;;;;;3.03;2.67;;;;;;;11.51;100.00;101544.72;2620349;54;20140;-66
2023/01/05 09:16:46;;;;;;;7.10;4.73;;;;;;;11.53;100.00;101539.41;2618949;54;20166;-66
2023/01/05 09:19:37;;;;;;;5.03;3.27;;;;;;;11.47;100.00;101532.78;2619830;54;20693;-66
2023/01/05 09:22:07;;;;;;;3.97;2.93;;;;;;;11.47;100.00;101527.59;2619301;54;20150;-66
2023/01/05 09:24:40;;;;;;;7.07;3.37;;;;;;;11.43;100.00;101520.88;2619997;39;20647;-66
2023/01/05 09:27:10;;;;;;;8.60;5.17;;;;;;;11.34;100.00;101516.13;2620994;54;20216;-67
2023/01/05 09:29:41;;;;;;;7.43;3.47;;;;;;;11.55;100.00;101507.25;2620294;54;20157;-66
2023/01/05 09:32:11;;;;;;;6.13;3.43;;;;;;;11.76;100.00;101500.13;2620377;54;20153;-66
2023/01/05 09:34:41;;;;;;;5.83;4.23;;;;;;;11.93;100.00;101487.06;2620098;54;20156;-66
2023/01/05 09:37:11;;;;;;;5.97;3.43;;;;;;;11.91;100.00;101490.69;2623376;54;20146;-66
2023/01/05 09:39:44;;;;;;;4.83;2.43;;;;;;;12.07;100.00;101483.75;2619678;54;20157;-66
2023/01/05 09:42:18;;;;;;;6.50;4.03;;;;;;;12.15;100.00;101469.41;2619736;54;20149;-66
2023/01/05 09:44:51;;;;;;;8.87;4.53;;;;;;;12.34;100.00;101471.00;2619637;54;20149;-67
2023/01/05 09:47:32;;;;;;;0.27;0.13;;;;;;;12.75;100.00;101460.88;2620100;39;20665;-67
2023/01/05 09:50:03;;;;;;;8.13;5.13;;;;;;;12.72;100.00;101451.47;2619041;47;20153;-67
2023/01/05 09:52:33;;;;;;;18.53;4.80;;;;;;;13.05;100.00;101440.88;2619321;54;20142;-67
2023/01/05 09:55:14;;;;;;;2.90;2.43;;;;;;;13.36;100.00;101443.34;2619108;54;20207;-67
2023/01/05 09:57:48;;;;;;;3.17;1.73;;;;;;;13.33;100.00;101438.34;2619013;47;20156;-66
2023/01/05 10:00:20;;;;;;;9.30;4.03;;;;;;;13.36;100.00;101413.88;2621208;39;20547;-68
2023/01/05 10:02:53;;;;;;;7.93;4.33;;;;;;;13.40;100.00;101417.97;2619441;39;20536;-68
2023/01/05 10:05:25;;;;;;;8.50;5.07;;;;;;;13.04;100.00;101415.72;2619039;47;20145;-64
2023/01/05 10:08:02;;;;;;;4.33;2.43;;;;;;;13.06;100.00;101413.88;2619315;54;20160;-65
2023/01/05 10:13:01;;;;;;;8.90;4.60;;;;;;;12.95;100.00;101404.13;2620355;54;20164;-65
2023/01/05 10:13:37;;;;;;;6.50;5.33;;;;;;;12.70;100.00;101396.03;2618987;54;20150;-64
2023/01/05 10:16:08;;;;;;;5.23;3.57;;;;;;;12.76;100.00;101398.28;2619373;54;20149;-65
2023/01/05 10:18:39;;;;;;;3.00;2.70;;;;;;;12.95;100.00;101379.84;2620256;54;20145;-64
2023/01/05 10:21:17;;;;;;;7.30;5.83;;;;;;;12.87;100.00;101361.22;2620320;54;20141;-65
2023/01/05 10:24:23;;;;;;;8.30;4.97;;;;;;;13.00;100.00;101376.00;2620075;54;20711;-64
2023/01/05 10:27:05;;;;;;;2.93;1.97;;;;;;;13.16;100.00;101364.72;2619572;54;20669;-65
2023/01/05 10:30:02;;;;;;;4.00;2.53;;;;;;;13.28;100.00;101353.56;2619386;54;20707;-65
2023/01/05 10:32:43;;;;;;;11.83;6.20;;;;;;;13.23;100.00;101343.41;2619736;54;20159;-64
2023/01/05 10:35:39;;;;;;;11.17;6.23;;;;;;;13.15;100.00;101340.44;2620684;54;20157;-64
2023/01/05 10:38:42;;;;;;;2.90;2.35;;;;;;;13.35;100.00;101332.25;2619887;54;20149;-66
2023/01/05 10:41:20;;;;;;;4.67;3.37;;;;;;;13.35;100.00;101328.78;2620291;39;20550;-64
2023/01/05 10:44:21;;;;;;;6.53;4.43;;;;;;;13.39;100.00;101323.28;2619505;54;20156;-64
2023/01/05 10:46:52;;;;;;;6.77;4.77;;;;;;;13.50;100.00;101297.41;2619816;54;20149;-66
2023/01/05 10:49:27;;;;;;;5.03;3.40;;;;;;;13.70;100.00;101300.50;2620044;54;20142;-65
2023/01/05 10:51:59;;;;;;;5.60;4.63;;;;;;;13.50;100.00;101305.22;2619897;47;20157;-65
2023/01/05 10:54:39;;;;;;;8.02;5.65;;;;;;;13.34;100.00;101294.06;2619974;54;20148;-64
2023/01/05 10:57:34;;;;;;;4.30;3.90;;;;;;;13.55;100.00;101295.34;2621113;54;20154;-64
2023/01/05 11:00:13;;;;;;;11.87;6.50;;;;;;;13.49;100.00;101284.44;2620264;47;20184;-65
2023/01/05 11:02:48;;;;;;;7.13;5.10;;;;;;;13.40;100.00;101298.88;2621396;54;20141;-65
2023/01/05 11:05:32;;;;;;;5.07;3.33;;;;;;;13.64;100.00;101286.06;2621311;54;20156;-65
2023/01/05 11:08:05;;;;;;;7.80;4.57;;;;;;;13.60;100.00;101282.00;2619858;54;20150;-64
2023/01/05 11:10:37;;;;;;;8.00;4.83;;;;;;;13.79;100.00;101286.88;2619449;54;20149;-64
2023/01/05 11:13:19;;;;;;;8.75;5.28;;;;;;;13.92;100.00;101274.75;2620245;54;20169;-64
2023/01/05 11:15:56;;;;;;;4.43;4.03;;;;;;;14.04;100.00;101273.94;2619920;54;20153;-64
2023/01/05 11:18:35;;;;;;;5.67;4.57;;;;;;;14.02;100.00;101274.03;2620118;54;20142;-64
2023/01/05 11:21:18;;;;;;;8.40;4.03;;;;;;;14.07;100.00;101263.28;2619855;54;20149;-65
2023/01/05 11:23:49;;;;;;;7.93;5.07;;;;;;;13.98;100.00;101258.69;2619855;54;20271;-64
2023/01/05 11:26:25;;;;;;;5.80;4.38;;;;;;;13.94;100.00;101263.25;2619324;54;20156;-64
2023/01/05 11:29:04;;;;;;;5.07;3.55;;;;;;;13.88;100.00;101247.19;2619518;54;20149;-65
2023/01/05 11:31:41;;;;;;;6.23;4.33;;;;;;;13.80;100.00;101247.66;2620131;54;20145;-64
2023/01/05 11:34:27;;;;;;;6.30;4.37;;;;;;;13.98;100.00;101250.84;2619052;54;20142;-64
2023/01/05 11:36:59;;;;;;;5.83;2.83;;;;;;;14.02;100.00;101237.50;2619180;47;20941;-64
2023/01/05 11:39:40;;;;;;;3.80;2.77;;;;;;;14.04;100.00;101238.22;2619976;39;20635;-66
2023/01/05 11:42:17;;;;;;;9.30;5.30;;;;;;;14.02;100.00;101242.72;2619332;47;20160;-64
2023/01/05 11:44:57;;;;;;;9.25;5.68;;;;;;;14.13;100.00;101226.34;2619506;54;20157;-64
2023/01/05 11:47:33;;;;;;;6.07;4.85;;;;;;;14.23;100.00;101213.53;2619546;54;20149;-64
2023/01/05 11:50:23;;;;;;;15.17;5.57;;;;;;;14.24;100.00;101220.44;2619697;39;20533;-65
2023/01/05 11:52:56;;;;;;;4.05;3.25;;;;;;;14.42;100.00;101208.78;2619563;47;20244;-66
2023/01/05 11:55:36;;;;;;;5.93;4.17;;;;;;;14.40;100.00;101206.25;2617858;47;20146;-65
2023/01/05 11:58:17;;;;;;;3.75;3.42;;;;;;;14.42;100.00;101209.59;2618547;54;20157;-65
2023/01/05 12:01:09;;;;;;;3.33;2.72;;;;;;;14.53;100.00;101199.25;2619194;47;20149;-66
2023/01/05 12:04:05;;;;;;;12.07;5.47;;;;;;;14.26;100.00;101190.66;2619669;47;20221;-65
2023/01/05 12:06:57;;;;;;;10.43;5.33;;;;;;;14.19;100.00;101192.03;2619418;54;20156;-65
2023/01/05 12:09:32;;;;;;;11.48;4.95;;;;;;;14.22;100.00;101185.75;2619223;54;20150;-65
2023/01/05 12:12:25;;;;;;;7.40;6.30;;;;;;;14.13;100.00;101181.97;2619308;54;20156;-65
2023/01/05 12:15:23;;;;;;;11.93;6.33;;;;;;;14.11;100.00;101186.47;2619751;39;20546;-65
2023/01/05 12:18:04;;;;;;;10.50;5.57;;;;;;;14.07;100.00;101161.53;2619402;39;20695;-65
2023/01/05 12:20:51;;;;;;;12.13;7.27;;;;;;;14.05;100.00;101173.84;2619088;48;20537;-64
2023/01/05 12:24:00;;;;;;;9.00;5.95;;;;;;;14.26;100.00;101161.13;2619596;54;20157;-64